General Aviation Weather

Text Reports

Enter one or more of the following location identifiers separated by a space:

Zip Code, Four-Character ICAO or Three-Character IATA airport codes.

METAR - Aviation Routine Weather Report
KOCH - Nacogdoches, Texas
Updated at 6:55 PM GMT on September 02, 2014 (1:55 PM CDT):
METAR KOCH 021855Z AUTO 23006KT 9SM TS FEW007 BKN025 OVC050 24/23 A3004 RMK AO1 LTG DSNT ALQDS TSB01 P0028
TAF - Terminal Area Forecast
KOCH - Nacogdoches, Texas
Updated at 6:55 PM GMT on September 02, 2014 (1:55 PM CDT):
No TAF is currently available for this location.
Decoded:
No decoded TAF is available.
PIREP - Pilot Weather Report
KOCH - Nacogdoches, Texas
Updated at 6:55 PM GMT on September 02, 2014 (1:55 PM CDT):
No PIREP is currently available for this location.
AIRMET - Airmens Meteorological Information
KOCH - Nacogdoches, Texas
Updated at 6:55 PM GMT on September 02, 2014 (1:55 PM CDT):
No AIRMET is currently available for this location.
SIGMET - Significant Meteorological Information
KOCH - Nacogdoches, Texas
Updated at 6:55 PM GMT on September 02, 2014 (1:55 PM CDT):
No SIGMET is currently available for this location.
NOTAM - Notice to Airmen
KOCH - Nacogdoches, Texas
Updated at 6:55 PM GMT on September 02, 2014 (1:55 PM CDT):
No NOTAM is currently available for this location.
Forecast Area
KOCH - Nacogdoches, Texas
Updated at 6:55 PM GMT on September 02, 2014 (1:55 PM CDT):
No NOTAM is currently available for this location.
Aviation Weather Maps